AXY4AJ KEWR-KATL
Flight info
| Callsign | AXY4AJ |
|---|---|
| Flight time | 2h 8m |
| Altitude | 37000 |
| Route | LANNA J48 MOL FLASK OZZZI1 |
| Aircraft | A346/H-SDE2E3FGHIJ3J4J5M1RWXY/LB1D1 |
Departure
| Time | 2026-05-08 01:43 |
|---|---|
| Airport | Newark Liberty International Airport (KEWR) |
Arrival
| Time | 2026-05-08 03:51 |
|---|---|
| Airport | Hartsfield Jackson Atlanta International Airport (KATL) |
| Time | Latitude | Longitude | Altitude | Speed | Heading |
|---|---|---|---|---|---|
| 2026-05-08 01:17 | 40.67672 | -74.18314 | 30 ft | 0 kts | 206° |
| 2026-05-08 01:34 | 40.67679 | -74.18310 | 31 ft | 0 kts | 206° |
| 2026-05-08 01:34 | 40.67701 | -74.18295 | 31 ft | 0 kts | 206° |
| 2026-05-08 01:35 | 40.67729 | -74.18280 | 30 ft | 0 kts | 161° |
| 2026-05-08 01:36 | 40.67754 | -74.18369 | 30 ft | 0 kts | 117° |
| 2026-05-08 01:39 | 40.67753 | -74.18368 | 30 ft | 1 kts | 117° |
| 2026-05-08 01:39 | 40.67745 | -74.18345 | 30 ft | 5 kts | 116° |
| 2026-05-08 01:39 | 40.67726 | -74.18294 | 29 ft | 8 kts | 116° |
| 2026-05-08 01:40 | 40.67699 | -74.18220 | 33 ft | 10 kts | 116° |
| 2026-05-08 01:40 | 40.67650 | -74.18127 | 32 ft | 14 kts | 128° |
| 2026-05-08 01:40 | 40.67604 | -74.18051 | 29 ft | 0 kts | 128° |
| 2026-05-08 01:41 | 40.67603 | -74.18050 | 29 ft | 1 kts | 128° |
| 2026-05-08 01:41 | 40.67593 | -74.18033 | 30 ft | 4 kts | 128° |
| 2026-05-08 01:41 | 40.67566 | -74.17961 | 31 ft | 10 kts | 86° |
| 2026-05-08 01:42 | 40.67585 | -74.17917 | 31 ft | 0 kts | 25° |
| 2026-05-08 01:42 | 40.67791 | -74.17784 | 28 ft | 78 kts | 26° |
| 2026-05-08 01:42 | 40.68537 | -74.17313 | 34 ft | 156 kts | 25° |
| 2026-05-08 01:42 | 40.69725 | -74.16559 | 120 ft | 212 kts | 25° |
| 2026-05-08 01:43 | 40.71053 | -74.15564 | 871 ft | 233 kts | 32° |
| 2026-05-08 01:43 | 40.72516 | -74.14243 | 1351 ft | 274 kts | 34° |
| 2026-05-08 01:43 | 40.74047 | -74.12762 | 1892 ft | 263 kts | 36° |
| 2026-05-08 01:43 | 40.75434 | -74.11328 | 2181 ft | 247 kts | 37° |
| 2026-05-08 01:44 | 40.76941 | -74.10265 | 2051 ft | 254 kts | 11° |
| 2026-05-08 01:44 | 40.78676 | -74.10364 | 2234 ft | 245 kts | 341° |
| 2026-05-08 01:44 | 40.80080 | -74.11508 | 2079 ft | 238 kts | 312° |
| 2026-05-08 01:44 | 40.80786 | -74.13473 | 2277 ft | 246 kts | 279° |
| 2026-05-08 01:45 | 40.80620 | -74.15819 | 3177 ft | 267 kts | 250° |
| 2026-05-08 01:45 | 40.79638 | -74.17870 | 4206 ft | 262 kts | 231° |
| 2026-05-08 01:45 | 40.78406 | -74.19625 | 5185 ft | 260 kts | 227° |
| 2026-05-08 01:45 | 40.77288 | -74.21488 | 6021 ft | 260 kts | 245° |
| 2026-05-08 01:46 | 40.76835 | -74.23784 | 6831 ft | 259 kts | 263° |
| 2026-05-08 01:46 | 40.76687 | -74.26153 | 7657 ft | 259 kts | 266° |
| 2026-05-08 01:46 | 40.76586 | -74.28535 | 8476 ft | 260 kts | 267° |
| 2026-05-08 01:46 | 40.76253 | -74.30879 | 9264 ft | 262 kts | 253° |
| 2026-05-08 01:47 | 40.75612 | -74.33138 | 10037 ft | 263 kts | 251° |
| 2026-05-08 01:47 | 40.74932 | -74.35401 | 10587 ft | 271 kts | 251° |
| 2026-05-08 01:47 | 40.74234 | -74.37785 | 10962 ft | 284 kts | 251° |
| 2026-05-08 01:48 | 40.72849 | -74.42652 | 12444 ft | 283 kts | 251° |
| 2026-05-08 01:48 | 40.72166 | -74.45087 | 13221 ft | 283 kts | 251° |
| 2026-05-08 01:48 | 40.71489 | -74.47525 | 13939 ft | 282 kts | 251° |
| 2026-05-08 01:48 | 40.70815 | -74.49946 | 14698 ft | 280 kts | 250° |
| 2026-05-08 01:49 | 40.70141 | -74.52359 | 15377 ft | 281 kts | 250° |
| 2026-05-08 01:49 | 40.69462 | -74.54790 | 16023 ft | 284 kts | 250° |
| 2026-05-08 01:49 | 40.68777 | -74.57249 | 16661 ft | 286 kts | 250° |
| 2026-05-08 01:49 | 40.68088 | -74.59723 | 17281 ft | 288 kts | 250° |
| 2026-05-08 01:50 | 40.67393 | -74.62216 | 17932 ft | 290 kts | 249° |
| 2026-05-08 01:50 | 40.66691 | -74.64729 | 18501 ft | 293 kts | 249° |
| 2026-05-08 01:50 | 40.65984 | -74.67255 | 19055 ft | 295 kts | 250° |
| 2026-05-08 01:50 | 40.65273 | -74.69796 | 19612 ft | 296 kts | 250° |
| 2026-05-08 01:51 | 40.64557 | -74.72356 | 20179 ft | 298 kts | 250° |
| 2026-05-08 01:51 | 40.63839 | -74.74924 | 20734 ft | 299 kts | 250° |
| 2026-05-08 01:51 | 40.63115 | -74.77509 | 21302 ft | 301 kts | 250° |
| 2026-05-08 01:51 | 40.62387 | -74.80104 | 21866 ft | 303 kts | 250° |
| 2026-05-08 01:52 | 40.61656 | -74.82712 | 22436 ft | 305 kts | 250° |
| 2026-05-08 01:52 | 40.60919 | -74.85342 | 22973 ft | 307 kts | 250° |
| 2026-05-08 01:52 | 40.60176 | -74.87987 | 23497 ft | 308 kts | 251° |
| 2026-05-08 01:52 | 40.59422 | -74.90665 | 23947 ft | 310 kts | 251° |
| 2026-05-08 01:53 | 40.58682 | -74.93293 | 24408 ft | 311 kts | 251° |
| 2026-05-08 01:53 | 40.57928 | -74.95968 | 24871 ft | 312 kts | 251° |
| 2026-05-08 01:53 | 40.57162 | -74.98657 | 25308 ft | 313 kts | 250° |
| 2026-05-08 01:53 | 40.56239 | -75.01247 | 25788 ft | 315 kts | 245° |
| 2026-05-08 01:54 | 40.55118 | -75.03733 | 26264 ft | 317 kts | 241° |
| 2026-05-08 01:54 | 40.53811 | -75.06096 | 26726 ft | 321 kts | 237° |
| 2026-05-08 01:54 | 40.52399 | -75.08377 | 27209 ft | 322 kts | 236° |
| 2026-05-08 01:54 | 40.50972 | -75.10664 | 27695 ft | 323 kts | 236° |
| 2026-05-08 01:55 | 40.49540 | -75.12950 | 28109 ft | 325 kts | 237° |
| 2026-05-08 01:55 | 40.48091 | -75.15258 | 28535 ft | 327 kts | 237° |
| 2026-05-08 01:55 | 40.46641 | -75.17562 | 28990 ft | 328 kts | 237° |
| 2026-05-08 01:55 | 40.45180 | -75.19882 | 29405 ft | 329 kts | 237° |
| 2026-05-08 01:56 | 40.43732 | -75.22177 | 29781 ft | 331 kts | 237° |
| 2026-05-08 01:56 | 40.42256 | -75.24512 | 30140 ft | 333 kts | 237° |
| 2026-05-08 01:56 | 40.40774 | -75.26857 | 30452 ft | 335 kts | 237° |
| 2026-05-08 01:56 | 40.39280 | -75.29216 | 30701 ft | 337 kts | 237° |
| 2026-05-08 01:57 | 40.37775 | -75.31591 | 30987 ft | 339 kts | 237° |
| 2026-05-08 01:57 | 40.36257 | -75.33987 | 31297 ft | 341 kts | 237° |
| 2026-05-08 01:57 | 40.34733 | -75.36390 | 31595 ft | 343 kts | 237° |
| 2026-05-08 01:57 | 40.33197 | -75.38809 | 31887 ft | 346 kts | 237° |
| 2026-05-08 01:58 | 40.31655 | -75.41234 | 32183 ft | 347 kts | 237° |
| 2026-05-08 01:58 | 40.30101 | -75.43678 | 32522 ft | 349 kts | 237° |
| 2026-05-08 01:58 | 40.28541 | -75.46128 | 32817 ft | 351 kts | 237° |
| 2026-05-08 01:58 | 40.26972 | -75.48588 | 33127 ft | 352 kts | 237° |
| 2026-05-08 01:59 | 40.25392 | -75.51065 | 33421 ft | 354 kts | 237° |
| 2026-05-08 01:59 | 40.23815 | -75.53554 | 33706 ft | 355 kts | 238° |
| 2026-05-08 01:59 | 40.22325 | -75.56088 | 33917 ft | 356 kts | 240° |
| 2026-05-08 01:59 | 40.20901 | -75.58736 | 34091 ft | 356 kts | 242° |
| 2026-05-08 02:00 | 40.19536 | -75.61456 | 34315 ft | 358 kts | 243° |
| 2026-05-08 02:00 | 40.18159 | -75.64180 | 34543 ft | 359 kts | 243° |
| 2026-05-08 02:00 | 40.16776 | -75.66915 | 34740 ft | 361 kts | 242° |
| 2026-05-08 02:00 | 40.15383 | -75.69673 | 34861 ft | 364 kts | 242° |
| 2026-05-08 02:01 | 40.12592 | -75.75209 | 34868 ft | 364 kts | 242° |
| 2026-05-08 02:01 | 40.09800 | -75.80738 | 34888 ft | 364 kts | 242° |
| 2026-05-08 02:02 | 40.07011 | -75.86255 | 34877 ft | 363 kts | 242° |
| 2026-05-08 02:02 | 40.04222 | -75.91759 | 34818 ft | 363 kts | 242° |
| 2026-05-08 02:03 | 40.01436 | -75.97245 | 34859 ft | 363 kts | 242° |
| 2026-05-08 02:03 | 39.98656 | -76.02713 | 34868 ft | 363 kts | 242° |
| 2026-05-08 02:04 | 39.95858 | -76.08207 | 34867 ft | 363 kts | 242° |
| 2026-05-08 02:04 | 39.93062 | -76.13688 | 34866 ft | 363 kts | 242° |
| 2026-05-08 02:05 | 39.90266 | -76.19162 | 34873 ft | 363 kts | 242° |
| 2026-05-08 02:05 | 39.87462 | -76.24642 | 34868 ft | 363 kts | 242° |
| 2026-05-08 02:06 | 39.84658 | -76.30113 | 34866 ft | 363 kts | 242° |
| 2026-05-08 02:06 | 39.81850 | -76.35580 | 34872 ft | 363 kts | 242° |
| 2026-05-08 02:07 | 39.79039 | -76.41042 | 34870 ft | 363 kts | 242° |
| 2026-05-08 02:07 | 39.76226 | -76.46500 | 34872 ft | 363 kts | 242° |
| 2026-05-08 02:08 | 39.73427 | -76.51920 | 34880 ft | 364 kts | 242° |
| 2026-05-08 02:08 | 39.70600 | -76.57385 | 34876 ft | 364 kts | 242° |
| 2026-05-08 02:09 | 39.67749 | -76.62881 | 34864 ft | 370 kts | 242° |
| 2026-05-08 02:09 | 39.64811 | -76.68522 | 34873 ft | 384 kts | 242° |
| 2026-05-08 02:10 | 39.61766 | -76.74370 | 34875 ft | 396 kts | 242° |
| 2026-05-08 02:10 | 39.58672 | -76.80325 | 34882 ft | 398 kts | 242° |
| 2026-05-08 02:11 | 39.55567 | -76.86285 | 34880 ft | 398 kts | 242° |
| 2026-05-08 02:11 | 39.52318 | -76.92083 | 34902 ft | 402 kts | 238° |
| 2026-05-08 02:12 | 39.48644 | -76.97600 | 34882 ft | 405 kts | 234° |
| 2026-05-08 02:12 | 39.44594 | -77.02758 | 34898 ft | 409 kts | 231° |
| 2026-05-08 02:13 | 39.40196 | -77.07541 | 34895 ft | 413 kts | 228° |
| 2026-05-08 02:13 | 39.35751 | -77.12251 | 34930 ft | 413 kts | 228° |
| 2026-05-08 02:14 | 39.31292 | -77.16953 | 34891 ft | 413 kts | 228° |
| 2026-05-08 02:14 | 39.26832 | -77.21636 | 34930 ft | 414 kts | 228° |
| 2026-05-08 02:15 | 39.22386 | -77.26290 | 34949 ft | 413 kts | 228° |
| 2026-05-08 02:15 | 39.17922 | -77.30955 | 34939 ft | 412 kts | 228° |
| 2026-05-08 02:16 | 39.13450 | -77.35621 | 34936 ft | 412 kts | 228° |
| 2026-05-08 02:16 | 39.08921 | -77.40336 | 34906 ft | 414 kts | 229° |
| 2026-05-08 02:17 | 39.04427 | -77.45004 | 34937 ft | 413 kts | 229° |
| 2026-05-08 02:17 | 38.99996 | -77.49603 | 34920 ft | 413 kts | 229° |
| 2026-05-08 02:18 | 38.95519 | -77.54240 | 34925 ft | 413 kts | 229° |
| 2026-05-08 02:18 | 38.91042 | -77.58870 | 34889 ft | 413 kts | 229° |
| 2026-05-08 02:19 | 38.86569 | -77.63483 | 34921 ft | 411 kts | 229° |
| 2026-05-08 02:19 | 38.82863 | -77.67305 | 34941 ft | 411 kts | 229° |
| 2026-05-08 02:20 | 38.78408 | -77.71893 | 34942 ft | 411 kts | 229° |
| 2026-05-08 02:20 | 38.73945 | -77.76480 | 34939 ft | 410 kts | 229° |
| 2026-05-08 02:21 | 38.69505 | -77.81074 | 34909 ft | 409 kts | 230° |
| 2026-05-08 02:21 | 38.65342 | -77.85985 | 34946 ft | 404 kts | 234° |
| 2026-05-08 02:22 | 38.61554 | -77.91250 | 34955 ft | 399 kts | 238° |
| 2026-05-08 02:22 | 38.58160 | -77.96781 | 34963 ft | 395 kts | 240° |
| 2026-05-08 02:23 | 38.54847 | -78.02380 | 34953 ft | 394 kts | 240° |
| 2026-05-08 02:23 | 38.51535 | -78.07975 | 34949 ft | 394 kts | 240° |
| 2026-05-08 02:24 | 38.48228 | -78.13562 | 34932 ft | 393 kts | 241° |
| 2026-05-08 02:24 | 38.44932 | -78.19139 | 34932 ft | 393 kts | 241° |
| 2026-05-08 02:25 | 38.41631 | -78.24718 | 34938 ft | 393 kts | 241° |
| 2026-05-08 02:25 | 38.38327 | -78.30292 | 34935 ft | 393 kts | 241° |
| 2026-05-08 02:26 | 38.35024 | -78.35854 | 34935 ft | 393 kts | 241° |
| 2026-05-08 02:26 | 38.31719 | -78.41412 | 34938 ft | 393 kts | 241° |
| 2026-05-08 02:27 | 38.28425 | -78.46927 | 34936 ft | 388 kts | 241° |
| 2026-05-08 02:27 | 38.25161 | -78.52402 | 34945 ft | 388 kts | 241° |
| 2026-05-08 02:28 | 38.21917 | -78.57835 | 34946 ft | 387 kts | 241° |
| 2026-05-08 02:28 | 38.18652 | -78.63291 | 34945 ft | 387 kts | 241° |
| 2026-05-08 02:29 | 38.15382 | -78.68746 | 34950 ft | 387 kts | 241° |
| 2026-05-08 02:29 | 38.12115 | -78.74188 | 34943 ft | 387 kts | 241° |
| 2026-05-08 02:30 | 38.08848 | -78.79604 | 34942 ft | 384 kts | 242° |
| 2026-05-08 02:30 | 38.05607 | -78.84987 | 34951 ft | 383 kts | 242° |
| 2026-05-08 02:31 | 38.02336 | -78.90410 | 34951 ft | 383 kts | 242° |
| 2026-05-08 02:31 | 37.99094 | -78.95775 | 34946 ft | 383 kts | 242° |
| 2026-05-08 02:32 | 37.95842 | -79.01145 | 34934 ft | 383 kts | 242° |
| 2026-05-08 02:32 | 37.92587 | -79.06510 | 34965 ft | 384 kts | 242° |
| 2026-05-08 02:33 | 37.89215 | -79.11777 | 34982 ft | 387 kts | 238° |
| 2026-05-08 02:33 | 37.85614 | -79.16809 | 34998 ft | 388 kts | 238° |
| 2026-05-08 02:34 | 37.81990 | -79.21881 | 35026 ft | 389 kts | 238° |
| 2026-05-08 02:34 | 37.78352 | -79.26953 | 35038 ft | 389 kts | 238° |
| 2026-05-08 02:35 | 37.74715 | -79.32008 | 35047 ft | 388 kts | 238° |
| 2026-05-08 02:35 | 37.71070 | -79.37062 | 35043 ft | 389 kts | 238° |
| 2026-05-08 02:36 | 37.67442 | -79.42070 | 35011 ft | 384 kts | 238° |
| 2026-05-08 02:36 | 37.63839 | -79.47054 | 35016 ft | 383 kts | 238° |
| 2026-05-08 02:37 | 37.60242 | -79.52019 | 34991 ft | 383 kts | 238° |
| 2026-05-08 02:37 | 37.56647 | -79.56974 | 34970 ft | 382 kts | 238° |
| 2026-05-08 02:38 | 37.53047 | -79.61925 | 34944 ft | 382 kts | 238° |
| 2026-05-08 02:38 | 37.49442 | -79.66878 | 34895 ft | 383 kts | 238° |
| 2026-05-08 02:39 | 37.45836 | -79.71818 | 34954 ft | 382 kts | 238° |
| 2026-05-08 02:39 | 37.42254 | -79.76724 | 34960 ft | 382 kts | 238° |
| 2026-05-08 02:40 | 37.38653 | -79.81646 | 34978 ft | 382 kts | 238° |
| 2026-05-08 02:40 | 37.35051 | -79.86562 | 34979 ft | 382 kts | 238° |
| 2026-05-08 02:41 | 37.31450 | -79.91471 | 34974 ft | 382 kts | 238° |
| 2026-05-08 02:41 | 37.27838 | -79.96384 | 34921 ft | 381 kts | 238° |
| 2026-05-08 02:42 | 37.24233 | -80.01281 | 34941 ft | 382 kts | 238° |
| 2026-05-08 02:42 | 37.20613 | -80.06193 | 34959 ft | 381 kts | 238° |
| 2026-05-08 02:43 | 37.17030 | -80.11047 | 34954 ft | 381 kts | 238° |
| 2026-05-08 02:43 | 37.13421 | -80.15928 | 34952 ft | 382 kts | 238° |
| 2026-05-08 02:44 | 37.09801 | -80.20817 | 34962 ft | 382 kts | 238° |
| 2026-05-08 02:44 | 37.06229 | -80.25620 | 34916 ft | 365 kts | 238° |
| 2026-05-08 02:45 | 37.04527 | -80.27896 | 34929 ft | 350 kts | 239° |
| 2026-05-08 02:45 | 37.02897 | -80.30078 | 34934 ft | 335 kts | 239° |
| 2026-05-08 02:45 | 37.01333 | -80.32165 | 34947 ft | 321 kts | 239° |
| 2026-05-08 02:45 | 36.99799 | -80.34116 | 34951 ft | 308 kts | 239° |
| 2026-05-08 02:46 | 36.96777 | -80.37975 | 35004 ft | 323 kts | 239° |
| 2026-05-08 02:46 | 36.95175 | -80.40028 | 34987 ft | 335 kts | 238° |
| 2026-05-08 02:46 | 36.93519 | -80.42144 | 34979 ft | 347 kts | 238° |
| 2026-05-08 02:47 | 36.90067 | -80.46521 | 34973 ft | 356 kts | 238° |
| 2026-05-08 02:47 | 36.86572 | -80.50925 | 34967 ft | 357 kts | 238° |
| 2026-05-08 02:48 | 36.83071 | -80.55339 | 34978 ft | 357 kts | 238° |
| 2026-05-08 02:48 | 36.79576 | -80.59738 | 34964 ft | 356 kts | 238° |
| 2026-05-08 02:49 | 36.76087 | -80.64133 | 34997 ft | 356 kts | 238° |
| 2026-05-08 02:49 | 36.72590 | -80.68532 | 34999 ft | 356 kts | 238° |
| 2026-05-08 02:50 | 36.69098 | -80.72919 | 35002 ft | 356 kts | 238° |
| 2026-05-08 02:50 | 36.65602 | -80.77305 | 34995 ft | 356 kts | 238° |
| 2026-05-08 02:51 | 36.62125 | -80.81667 | 34929 ft | 357 kts | 237° |
| 2026-05-08 02:51 | 36.58611 | -80.86067 | 34976 ft | 358 kts | 237° |
| 2026-05-08 02:52 | 36.55088 | -80.90466 | 34953 ft | 359 kts | 237° |
| 2026-05-08 02:52 | 36.51562 | -80.94858 | 34964 ft | 358 kts | 237° |
| 2026-05-08 02:53 | 36.48039 | -80.99247 | 34974 ft | 357 kts | 238° |
| 2026-05-08 02:53 | 36.44526 | -81.03621 | 34990 ft | 357 kts | 237° |
| 2026-05-08 02:54 | 36.41004 | -81.08000 | 34957 ft | 358 kts | 237° |
| 2026-05-08 02:54 | 36.37503 | -81.12351 | 35007 ft | 359 kts | 237° |
| 2026-05-08 02:55 | 36.32194 | -81.18926 | 35020 ft | 359 kts | 237° |
| 2026-05-08 02:56 | 36.28650 | -81.23306 | 35030 ft | 359 kts | 237° |
| 2026-05-08 02:56 | 36.25112 | -81.27678 | 35013 ft | 359 kts | 237° |
| 2026-05-08 02:57 | 36.21569 | -81.32049 | 35011 ft | 360 kts | 237° |
| 2026-05-08 02:57 | 36.18016 | -81.36426 | 34948 ft | 359 kts | 237° |
| 2026-05-08 02:58 | 36.14464 | -81.40797 | 34971 ft | 360 kts | 237° |
| 2026-05-08 02:58 | 36.10910 | -81.45162 | 34966 ft | 360 kts | 237° |
| 2026-05-08 02:59 | 36.07374 | -81.49500 | 34947 ft | 360 kts | 237° |
| 2026-05-08 02:59 | 36.03814 | -81.53860 | 34951 ft | 361 kts | 237° |
| 2026-05-08 03:00 | 36.00231 | -81.58245 | 34946 ft | 361 kts | 236° |
| 2026-05-08 03:00 | 35.96662 | -81.62601 | 34944 ft | 360 kts | 237° |
| 2026-05-08 03:01 | 35.93095 | -81.66957 | 34937 ft | 360 kts | 236° |
| 2026-05-08 03:01 | 35.89536 | -81.71290 | 34943 ft | 359 kts | 236° |
| 2026-05-08 03:02 | 35.85979 | -81.75618 | 34948 ft | 359 kts | 236° |
| 2026-05-08 03:02 | 35.82422 | -81.79942 | 35017 ft | 359 kts | 236° |
| 2026-05-08 03:03 | 35.78890 | -81.84228 | 35012 ft | 359 kts | 236° |
| 2026-05-08 03:03 | 35.75328 | -81.88545 | 34994 ft | 358 kts | 236° |
| 2026-05-08 03:04 | 35.71765 | -81.92859 | 34972 ft | 359 kts | 236° |
| 2026-05-08 03:04 | 35.68201 | -81.97168 | 34985 ft | 359 kts | 236° |
| 2026-05-08 03:05 | 35.64642 | -82.01466 | 34986 ft | 359 kts | 236° |
| 2026-05-08 03:05 | 35.61078 | -82.05762 | 34994 ft | 358 kts | 236° |
| 2026-05-08 03:06 | 35.57491 | -82.10082 | 34994 ft | 359 kts | 236° |
| 2026-05-08 03:06 | 35.54525 | -82.13647 | 34995 ft | 358 kts | 236° |
| 2026-05-08 03:07 | 35.50382 | -82.18627 | 34997 ft | 358 kts | 236° |
| 2026-05-08 03:07 | 35.46816 | -82.22908 | 34971 ft | 360 kts | 236° |
| 2026-05-08 03:08 | 35.43330 | -82.27288 | 34981 ft | 358 kts | 237° |
| 2026-05-08 03:08 | 35.40442 | -82.30981 | 34973 ft | 359 kts | 237° |
| 2026-05-08 03:09 | 35.36999 | -82.35368 | 34963 ft | 359 kts | 237° |
| 2026-05-08 03:09 | 35.33527 | -82.39769 | 34958 ft | 359 kts | 237° |
| 2026-05-08 03:10 | 35.30059 | -82.44166 | 34964 ft | 358 kts | 237° |
| 2026-05-08 03:10 | 35.26593 | -82.48555 | 34923 ft | 358 kts | 237° |
| 2026-05-08 03:11 | 35.23099 | -82.52986 | 35003 ft | 364 kts | 236° |
| 2026-05-08 03:11 | 35.19508 | -82.57332 | 34485 ft | 358 kts | 235° |
| 2026-05-08 03:11 | 35.17732 | -82.59467 | 33455 ft | 357 kts | 235° |
| 2026-05-08 03:12 | 35.15976 | -82.61568 | 32654 ft | 349 kts | 236° |
| 2026-05-08 03:12 | 35.14260 | -82.63623 | 31783 ft | 343 kts | 236° |
| 2026-05-08 03:12 | 35.12567 | -82.65657 | 30894 ft | 338 kts | 237° |
| 2026-05-08 03:12 | 35.10902 | -82.67661 | 30070 ft | 334 kts | 237° |
| 2026-05-08 03:13 | 35.09262 | -82.69642 | 29109 ft | 329 kts | 237° |
| 2026-05-08 03:13 | 35.07640 | -82.71607 | 28134 ft | 327 kts | 237° |
| 2026-05-08 03:13 | 35.06053 | -82.73531 | 27183 ft | 324 kts | 236° |
| 2026-05-08 03:13 | 35.04455 | -82.75462 | 26308 ft | 321 kts | 235° |
| 2026-05-08 03:14 | 35.02867 | -82.77373 | 25313 ft | 320 kts | 234° |
| 2026-05-08 03:14 | 35.01281 | -82.79284 | 24352 ft | 319 kts | 233° |
| 2026-05-08 03:14 | 34.99706 | -82.81176 | 23463 ft | 317 kts | 233° |
| 2026-05-08 03:14 | 34.98131 | -82.83060 | 22430 ft | 316 kts | 233° |
| 2026-05-08 03:15 | 34.96563 | -82.84935 | 21460 ft | 315 kts | 233° |
| 2026-05-08 03:15 | 34.94997 | -82.86811 | 20570 ft | 315 kts | 233° |
| 2026-05-08 03:15 | 34.93431 | -82.88683 | 19694 ft | 315 kts | 232° |
| 2026-05-08 03:15 | 34.91841 | -82.90534 | 18859 ft | 315 kts | 232° |
| 2026-05-08 03:16 | 34.90247 | -82.92377 | 18286 ft | 317 kts | 232° |
| 2026-05-08 03:16 | 34.88660 | -82.94214 | 17670 ft | 319 kts | 232° |
| 2026-05-08 03:16 | 34.87054 | -82.96074 | 17043 ft | 318 kts | 231° |
| 2026-05-08 03:16 | 34.85454 | -82.97926 | 16425 ft | 316 kts | 231° |
| 2026-05-08 03:17 | 34.83861 | -82.99767 | 15826 ft | 315 kts | 231° |
| 2026-05-08 03:17 | 34.82279 | -83.01597 | 15243 ft | 314 kts | 230° |
| 2026-05-08 03:17 | 34.80697 | -83.03426 | 14663 ft | 313 kts | 230° |
| 2026-05-08 03:17 | 34.79123 | -83.05244 | 14077 ft | 311 kts | 230° |
| 2026-05-08 03:18 | 34.77557 | -83.07048 | 13488 ft | 308 kts | 230° |
| 2026-05-08 03:18 | 34.76008 | -83.08833 | 12852 ft | 305 kts | 229° |
| 2026-05-08 03:18 | 34.74475 | -83.10601 | 12242 ft | 303 kts | 229° |
| 2026-05-08 03:18 | 34.72951 | -83.12357 | 11650 ft | 300 kts | 229° |
| 2026-05-08 03:19 | 34.71427 | -83.14113 | 11082 ft | 298 kts | 229° |
| 2026-05-08 03:19 | 34.69924 | -83.15843 | 10498 ft | 296 kts | 228° |
| 2026-05-08 03:19 | 34.68432 | -83.17558 | 10115 ft | 295 kts | 229° |
| 2026-05-08 03:19 | 34.66940 | -83.19273 | 9996 ft | 295 kts | 229° |
| 2026-05-08 03:20 | 34.65448 | -83.20990 | 10002 ft | 296 kts | 229° |
| 2026-05-08 03:20 | 34.63949 | -83.22713 | 9998 ft | 296 kts | 229° |
| 2026-05-08 03:20 | 34.62455 | -83.24425 | 10000 ft | 295 kts | 229° |
| 2026-05-08 03:20 | 34.60962 | -83.26143 | 9996 ft | 296 kts | 229° |
| 2026-05-08 03:21 | 34.59462 | -83.27860 | 9999 ft | 295 kts | 229° |
| 2026-05-08 03:21 | 34.57964 | -83.29579 | 10000 ft | 295 kts | 229° |
| 2026-05-08 03:21 | 34.56486 | -83.31273 | 9996 ft | 296 kts | 229° |
| 2026-05-08 03:21 | 34.54989 | -83.32988 | 9963 ft | 294 kts | 229° |
| 2026-05-08 03:22 | 34.53530 | -83.34654 | 9594 ft | 283 kts | 229° |
| 2026-05-08 03:22 | 34.52103 | -83.36304 | 9117 ft | 284 kts | 229° |
| 2026-05-08 03:22 | 34.50665 | -83.37968 | 8979 ft | 287 kts | 229° |
| 2026-05-08 03:22 | 34.49211 | -83.39644 | 8995 ft | 288 kts | 229° |
| 2026-05-08 03:23 | 34.47778 | -83.41289 | 9022 ft | 275 kts | 229° |
| 2026-05-08 03:23 | 34.46420 | -83.42842 | 9000 ft | 261 kts | 229° |
| 2026-05-08 03:23 | 34.45131 | -83.44314 | 8933 ft | 247 kts | 230° |
| 2026-05-08 03:23 | 34.43921 | -83.45697 | 8927 ft | 231 kts | 230° |
| 2026-05-08 03:24 | 34.42787 | -83.46994 | 8933 ft | 217 kts | 231° |
| 2026-05-08 03:24 | 34.41719 | -83.48216 | 8938 ft | 203 kts | 231° |
| 2026-05-08 03:24 | 34.40736 | -83.49338 | 8989 ft | 184 kts | 231° |
| 2026-05-08 03:24 | 34.39820 | -83.50390 | 8962 ft | 179 kts | 232° |
| 2026-05-08 03:25 | 34.38920 | -83.51430 | 8961 ft | 178 kts | 232° |
| 2026-05-08 03:25 | 34.38024 | -83.52464 | 8968 ft | 178 kts | 232° |
| 2026-05-08 03:25 | 34.37123 | -83.53502 | 8977 ft | 178 kts | 232° |
| 2026-05-08 03:25 | 34.36219 | -83.54538 | 8972 ft | 179 kts | 232° |
| 2026-05-08 03:26 | 34.35317 | -83.55573 | 8983 ft | 179 kts | 232° |
| 2026-05-08 03:26 | 34.34421 | -83.56599 | 8985 ft | 179 kts | 232° |
| 2026-05-08 03:26 | 34.33513 | -83.57638 | 8986 ft | 179 kts | 232° |
| 2026-05-08 03:26 | 34.32607 | -83.58674 | 8988 ft | 179 kts | 232° |
| 2026-05-08 03:27 | 34.31701 | -83.59710 | 8986 ft | 179 kts | 232° |
| 2026-05-08 03:27 | 34.30794 | -83.60746 | 8958 ft | 179 kts | 232° |
| 2026-05-08 03:27 | 34.29893 | -83.61771 | 8992 ft | 177 kts | 232° |
| 2026-05-08 03:27 | 34.29004 | -83.62785 | 8975 ft | 175 kts | 231° |
| 2026-05-08 03:28 | 34.28092 | -83.63774 | 8996 ft | 176 kts | 231° |
| 2026-05-08 03:28 | 34.27171 | -83.64752 | 8997 ft | 176 kts | 231° |
| 2026-05-08 03:28 | 34.26250 | -83.65729 | 8997 ft | 176 kts | 231° |
| 2026-05-08 03:28 | 34.25330 | -83.66708 | 9000 ft | 176 kts | 231° |
| 2026-05-08 03:29 | 34.24408 | -83.67689 | 8994 ft | 176 kts | 231° |
| 2026-05-08 03:29 | 34.23490 | -83.68665 | 9000 ft | 177 kts | 231° |
| 2026-05-08 03:29 | 34.22565 | -83.69649 | 8989 ft | 176 kts | 231° |
| 2026-05-08 03:29 | 34.21643 | -83.70627 | 8999 ft | 176 kts | 231° |
| 2026-05-08 03:30 | 34.19801 | -83.72588 | 8990 ft | 176 kts | 231° |
| 2026-05-08 03:30 | 34.17909 | -83.74598 | 8990 ft | 176 kts | 231° |
| 2026-05-08 03:31 | 34.16069 | -83.76553 | 8998 ft | 176 kts | 231° |
| 2026-05-08 03:31 | 34.14225 | -83.78511 | 8993 ft | 176 kts | 231° |
| 2026-05-08 03:32 | 34.13304 | -83.79488 | 9000 ft | 176 kts | 231° |
| 2026-05-08 03:32 | 34.12605 | -83.80229 | 8996 ft | 176 kts | 231° |
| 2026-05-08 03:32 | 34.11682 | -83.81208 | 8994 ft | 176 kts | 231° |
| 2026-05-08 03:32 | 34.10758 | -83.82188 | 8996 ft | 177 kts | 231° |
| 2026-05-08 03:33 | 34.09833 | -83.83168 | 8993 ft | 177 kts | 231° |
| 2026-05-08 03:33 | 34.08911 | -83.84152 | 8993 ft | 176 kts | 231° |
| 2026-05-08 03:33 | 34.07995 | -83.85136 | 8986 ft | 175 kts | 231° |
| 2026-05-08 03:33 | 34.07098 | -83.86097 | 8737 ft | 172 kts | 231° |
| 2026-05-08 03:34 | 34.06198 | -83.87069 | 8362 ft | 174 kts | 231° |
| 2026-05-08 03:34 | 34.05290 | -83.88046 | 8065 ft | 174 kts | 230° |
| 2026-05-08 03:34 | 34.04388 | -83.89016 | 8012 ft | 175 kts | 230° |
| 2026-05-08 03:34 | 34.03474 | -83.89995 | 8005 ft | 176 kts | 230° |
| 2026-05-08 03:35 | 34.02557 | -83.90977 | 8004 ft | 177 kts | 230° |
| 2026-05-08 03:35 | 34.01636 | -83.91963 | 8005 ft | 177 kts | 230° |
| 2026-05-08 03:35 | 34.00714 | -83.92950 | 8002 ft | 176 kts | 230° |
| 2026-05-08 03:35 | 33.99802 | -83.93927 | 7996 ft | 176 kts | 230° |
| 2026-05-08 03:36 | 33.98867 | -83.94906 | 8027 ft | 189 kts | 226° |
| 2026-05-08 03:36 | 33.97701 | -83.95785 | 8009 ft | 200 kts | 216° |
| 2026-05-08 03:36 | 33.96389 | -83.96392 | 8006 ft | 209 kts | 205° |
| 2026-05-08 03:36 | 33.94931 | -83.96689 | 8003 ft | 217 kts | 194° |
| 2026-05-08 03:37 | 33.93411 | -83.96696 | 8002 ft | 220 kts | 189° |
| 2026-05-08 03:37 | 33.91879 | -83.96634 | 8004 ft | 220 kts | 188° |
| 2026-05-08 03:37 | 33.90348 | -83.96558 | 8002 ft | 221 kts | 188° |
| 2026-05-08 03:37 | 33.88814 | -83.96484 | 7999 ft | 220 kts | 188° |
| 2026-05-08 03:38 | 33.87277 | -83.96415 | 7998 ft | 221 kts | 188° |
| 2026-05-08 03:38 | 33.85746 | -83.96347 | 7997 ft | 220 kts | 188° |
| 2026-05-08 03:38 | 33.84216 | -83.96280 | 7984 ft | 218 kts | 188° |
| 2026-05-08 03:38 | 33.82715 | -83.96214 | 7734 ft | 216 kts | 188° |
| 2026-05-08 03:39 | 33.81201 | -83.96156 | 7622 ft | 218 kts | 188° |
| 2026-05-08 03:39 | 33.79683 | -83.96094 | 7466 ft | 218 kts | 188° |
| 2026-05-08 03:39 | 33.78163 | -83.96030 | 7353 ft | 218 kts | 188° |
| 2026-05-08 03:39 | 33.76651 | -83.95984 | 7228 ft | 216 kts | 190° |
| 2026-05-08 03:40 | 33.75176 | -83.96085 | 7106 ft | 213 kts | 195° |
| 2026-05-08 03:40 | 33.73750 | -83.96351 | 6992 ft | 200 kts | 201° |
| 2026-05-08 03:40 | 33.72447 | -83.96684 | 6982 ft | 188 kts | 202° |
| 2026-05-08 03:40 | 33.71090 | -83.97050 | 6991 ft | 190 kts | 203° |
| 2026-05-08 03:41 | 33.69796 | -83.97403 | 6978 ft | 191 kts | 202° |
| 2026-05-08 03:41 | 33.68497 | -83.97753 | 6984 ft | 192 kts | 202° |
| 2026-05-08 03:41 | 33.67192 | -83.98100 | 6984 ft | 192 kts | 203° |
| 2026-05-08 03:41 | 33.65891 | -83.98448 | 6985 ft | 190 kts | 205° |
| 2026-05-08 03:42 | 33.64738 | -83.99083 | 6974 ft | 177 kts | 230° |
| 2026-05-08 03:42 | 33.64097 | -84.00286 | 6991 ft | 169 kts | 250° |
| 2026-05-08 03:42 | 33.63711 | -84.01615 | 6993 ft | 167 kts | 258° |
| 2026-05-08 03:42 | 33.63513 | -84.02992 | 6983 ft | 167 kts | 265° |
| 2026-05-08 03:43 | 33.63456 | -84.04366 | 6805 ft | 167 kts | 270° |
| 2026-05-08 03:43 | 33.63472 | -84.05750 | 6589 ft | 165 kts | 270° |
| 2026-05-08 03:43 | 33.63492 | -84.07128 | 6376 ft | 165 kts | 270° |
| 2026-05-08 03:43 | 33.63507 | -84.08509 | 6158 ft | 164 kts | 271° |
| 2026-05-08 03:44 | 33.63515 | -84.09879 | 5929 ft | 161 kts | 271° |
| 2026-05-08 03:44 | 33.63519 | -84.11178 | 5700 ft | 150 kts | 270° |
| 2026-05-08 03:44 | 33.63519 | -84.12390 | 5505 ft | 142 kts | 270° |
| 2026-05-08 03:44 | 33.63517 | -84.13585 | 5338 ft | 144 kts | 270° |
| 2026-05-08 03:45 | 33.63514 | -84.14787 | 5167 ft | 145 kts | 270° |
| 2026-05-08 03:45 | 33.63510 | -84.16006 | 4985 ft | 145 kts | 271° |
| 2026-05-08 03:45 | 33.63505 | -84.17216 | 4808 ft | 145 kts | 271° |
| 2026-05-08 03:45 | 33.63500 | -84.18432 | 4619 ft | 146 kts | 271° |
| 2026-05-08 03:46 | 33.63496 | -84.19652 | 4446 ft | 146 kts | 271° |
| 2026-05-08 03:46 | 33.63492 | -84.20877 | 4250 ft | 147 kts | 271° |
| 2026-05-08 03:46 | 33.63488 | -84.22104 | 4051 ft | 146 kts | 272° |
| 2026-05-08 03:46 | 33.63484 | -84.23330 | 3839 ft | 147 kts | 272° |
| 2026-05-08 03:47 | 33.63482 | -84.24556 | 3640 ft | 147 kts | 272° |
| 2026-05-08 03:47 | 33.63479 | -84.25799 | 3448 ft | 149 kts | 273° |
| 2026-05-08 03:47 | 33.63477 | -84.27046 | 3248 ft | 149 kts | 273° |
| 2026-05-08 03:47 | 33.63475 | -84.28299 | 3047 ft | 151 kts | 274° |
| 2026-05-08 03:48 | 33.63474 | -84.29561 | 2835 ft | 152 kts | 274° |
| 2026-05-08 03:48 | 33.63473 | -84.30840 | 2637 ft | 153 kts | 274° |
| 2026-05-08 03:48 | 33.63472 | -84.32119 | 2434 ft | 152 kts | 274° |
| 2026-05-08 03:48 | 33.63468 | -84.33388 | 2224 ft | 151 kts | 274° |
| 2026-05-08 03:49 | 33.63468 | -84.34655 | 1994 ft | 151 kts | 275° |
| 2026-05-08 03:49 | 33.63476 | -84.35922 | 1754 ft | 152 kts | 273° |
| 2026-05-08 03:49 | 33.63472 | -84.37197 | 1567 ft | 153 kts | 274° |
| 2026-05-08 03:49 | 33.63478 | -84.38462 | 1407 ft | 153 kts | 270° |
| 2026-05-08 03:50 | 33.63471 | -84.39743 | 1218 ft | 153 kts | 270° |
| 2026-05-08 03:50 | 33.63472 | -84.41027 | 1044 ft | 153 kts | 270° |
| 2026-05-08 03:50 | 33.63467 | -84.42298 | 1016 ft | 147 kts | 270° |
| 2026-05-08 03:50 | 33.63472 | -84.43159 | 1013 ft | 64 kts | 270° |
| 2026-05-08 03:51 | 33.63475 | -84.43533 | 1014 ft | 25 kts | 278° |
| 2026-05-08 03:51 | 33.63479 | -84.43699 | 1014 ft | 20 kts | 266° |
| 2026-05-08 03:51 | 33.63471 | -84.43875 | 1016 ft | 21 kts | 269° |
| 2026-05-08 03:51 | 33.63469 | -84.44063 | 1015 ft | 24 kts | 269° |
| 2026-05-08 03:52 | 33.63376 | -84.44218 | 1014 ft | 19 kts | 217° |
| 2026-05-08 03:52 | 33.63289 | -84.44248 | 1014 ft | 16 kts | 159° |
| 2026-05-08 03:52 | 33.63192 | -84.44163 | 1013 ft | 17 kts | 165° |
| 2026-05-08 03:52 | 33.63094 | -84.44126 | 1013 ft | 14 kts | 135° |
| 2026-05-08 03:53 | 33.63072 | -84.43986 | 1014 ft | 21 kts | 90° |
| 2026-05-08 03:53 | 33.63072 | -84.43790 | 1014 ft | 21 kts | 90° |
| 2026-05-08 03:53 | 33.63072 | -84.43640 | 1015 ft | 18 kts | 90° |
| 2026-05-08 03:53 | 33.63072 | -84.43475 | 1015 ft | 21 kts | 90° |
| 2026-05-08 03:54 | 33.63072 | -84.43327 | 1016 ft | 17 kts | 90° |
| 2026-05-08 03:54 | 33.63072 | -84.43172 | 1015 ft | 20 kts | 90° |
| 2026-05-08 03:54 | 33.63072 | -84.43063 | 1015 ft | 12 kts | 90° |
| 2026-05-08 03:54 | 33.63058 | -84.42952 | 1015 ft | 15 kts | 123° |
| 2026-05-08 03:55 | 33.62972 | -84.42888 | 1015 ft | 16 kts | 142° |
| 2026-05-08 03:55 | 33.62930 | -84.42861 | 1015 ft | 5 kts | 160° |
| 2026-05-08 03:55 | 33.62884 | -84.42852 | 1015 ft | 8 kts | 181° |
| 2026-05-08 03:55 | 33.62852 | -84.42853 | 1015 ft | 4 kts | 181° |
| 2026-05-08 03:56 | 33.62822 | -84.42843 | 1005 ft | 5 kts | 146° |
| 2026-05-08 03:56 | 33.62814 | -84.42800 | 1012 ft | 7 kts | 93° |
| 2026-05-08 03:56 | 33.62813 | -84.42772 | 1013 ft | 0 kts | 89° |
| 2026-05-08 03:56 | 33.62813 | -84.42769 | 1013 ft | 0 kts | 89° |